sensor_id;sensor_type;location;lat;lon;timestamp;P1;durP1;ratioP1;P2;durP2;ratioP2
14076;SDS011;7114;51.100;13.998;2023-09-19T00:00:04;10.33;;;4.50;;
14076;SDS011;7114;51.100;13.998;2023-09-19T00:02:33;12.40;;;4.85;;
14076;SDS011;7114;51.100;13.998;2023-09-19T00:05:00;10.13;;;5.00;;
14076;SDS011;7114;51.100;13.998;2023-09-19T00:07:29;9.65;;;4.60;;
14076;SDS011;7114;51.100;13.998;2023-09-19T00:09:56;10.82;;;4.63;;
14076;SDS011;7114;51.100;13.998;2023-09-19T00:12:22;9.33;;;4.00;;
14076;SDS011;7114;51.100;13.998;2023-09-19T00:14:49;10.02;;;4.35;;
14076;SDS011;7114;51.100;13.998;2023-09-19T00:17:16;10.07;;;4.50;;
14076;SDS011;7114;51.100;13.998;2023-09-19T00:19:42;10.00;;;4.40;;
14076;SDS011;7114;51.100;13.998;2023-09-19T00:22:10;9.73;;;4.63;;
14076;SDS011;7114;51.100;13.998;2023-09-19T00:24:38;9.83;;;4.37;;
14076;SDS011;7114;51.100;13.998;2023-09-19T00:27:05;10.57;;;4.40;;
14076;SDS011;7114;51.100;13.998;2023-09-19T00:29:33;10.80;;;4.80;;
14076;SDS011;7114;51.100;13.998;2023-09-19T00:31:59;10.52;;;4.70;;
14076;SDS011;7114;51.100;13.998;2023-09-19T00:34:28;10.15;;;4.20;;
14076;SDS011;7114;51.100;13.998;2023-09-19T00:36:55;8.27;;;3.70;;
14076;SDS011;7114;51.100;13.998;2023-09-19T00:39:23;9.20;;;4.20;;
14076;SDS011;7114;51.100;13.998;2023-09-19T00:41:50;9.07;;;4.10;;
14076;SDS011;7114;51.100;13.998;2023-09-19T00:44:17;8.40;;;3.88;;
14076;SDS011;7114;51.100;13.998;2023-09-19T00:46:45;9.73;;;4.40;;
14076;SDS011;7114;51.100;13.998;2023-09-19T00:49:14;8.57;;;3.90;;
14076;SDS011;7114;51.100;13.998;2023-09-19T00:51:40;9.25;;;4.20;;
14076;SDS011;7114;51.100;13.998;2023-09-19T00:54:10;8.55;;;3.90;;
14076;SDS011;7114;51.100;13.998;2023-09-19T00:56:39;9.23;;;3.95;;
14076;SDS011;7114;51.100;13.998;2023-09-19T00:59:07;11.43;;;5.00;;
14076;SDS011;7114;51.100;13.998;2023-09-19T01:01:33;10.73;;;3.93;;
14076;SDS011;7114;51.100;13.998;2023-09-19T01:04:00;10.52;;;4.30;;
14076;SDS011;7114;51.100;13.998;2023-09-19T01:06:27;11.38;;;4.00;;
14076;SDS011;7114;51.100;13.998;2023-09-19T01:08:53;8.95;;;3.67;;
14076;SDS011;7114;51.100;13.998;2023-09-19T01:11:21;8.52;;;3.75;;
14076;SDS011;7114;51.100;13.998;2023-09-19T01:13:56;9.73;;;3.97;;
14076;SDS011;7114;51.100;13.998;2023-09-19T01:16:28;10.40;;;4.05;;
14076;SDS011;7114;51.100;13.998;2023-09-19T01:19:01;9.38;;;3.90;;
14076;SDS011;7114;51.100;13.998;2023-09-19T01:21:38;9.13;;;4.43;;
14076;SDS011;7114;51.100;13.998;2023-09-19T01:24:14;11.48;;;3.90;;
14076;SDS011;7114;51.100;13.998;2023-09-19T01:26:56;8.87;;;3.40;;
14076;SDS011;7114;51.100;13.998;2023-09-19T01:29:36;8.98;;;3.38;;
14076;SDS011;7114;51.100;13.998;2023-09-19T01:32:06;9.43;;;4.18;;
14076;SDS011;7114;51.100;13.998;2023-09-19T01:34:44;8.35;;;3.50;;
14076;SDS011;7114;51.100;13.998;2023-09-19T01:37:13;9.75;;;3.60;;
14076;SDS011;7114;51.100;13.998;2023-09-19T01:39:44;8.23;;;3.53;;
14076;SDS011;7114;51.100;13.998;2023-09-19T01:42:15;10.15;;;3.90;;
14076;SDS011;7114;51.100;13.998;2023-09-19T01:44:49;10.57;;;4.00;;
14076;SDS011;7114;51.100;13.998;2023-09-19T01:47:23;8.50;;;3.60;;
14076;SDS011;7114;51.100;13.998;2023-09-19T01:49:55;11.32;;;3.53;;
14076;SDS011;7114;51.100;13.998;2023-09-19T01:52:25;9.33;;;3.77;;
14076;SDS011;7114;51.100;13.998;2023-09-19T01:54:55;8.20;;;3.53;;
14076;SDS011;7114;51.100;13.998;2023-09-19T01:57:32;8.55;;;3.55;;
14076;SDS011;7114;51.100;13.998;2023-09-19T02:00:02;8.98;;;3.80;;
14076;SDS011;7114;51.100;13.998;2023-09-19T02:02:33;8.88;;;3.58;;
14076;SDS011;7114;51.100;13.998;2023-09-19T02:05:00;8.80;;;3.67;;
14076;SDS011;7114;51.100;13.998;2023-09-19T02:07:27;10.15;;;3.75;;
14076;SDS011;7114;51.100;13.998;2023-09-19T02:09:56;9.73;;;3.30;;
14076;SDS011;7114;51.100;13.998;2023-09-19T02:12:24;9.00;;;3.47;;
14076;SDS011;7114;51.100;13.998;2023-09-19T02:14:50;10.55;;;3.25;;
14076;SDS011;7114;51.100;13.998;2023-09-19T02:17:16;8.60;;;3.67;;
14076;SDS011;7114;51.100;13.998;2023-09-19T02:19:44;9.20;;;3.15;;
14076;SDS011;7114;51.100;13.998;2023-09-19T02:22:11;9.40;;;3.80;;
14076;SDS011;7114;51.100;13.998;2023-09-19T02:24:39;9.75;;;3.55;;
14076;SDS011;7114;51.100;13.998;2023-09-19T02:27:05;8.23;;;3.78;;
14076;SDS011;7114;51.100;13.998;2023-09-19T02:29:32;10.60;;;3.53;;
14076;SDS011;7114;51.100;13.998;2023-09-19T02:32:00;9.60;;;3.60;;
14076;SDS011;7114;51.100;13.998;2023-09-19T02:34:27;9.95;;;3.78;;
14076;SDS011;7114;51.100;13.998;2023-09-19T02:36:55;10.00;;;3.88;;
14076;SDS011;7114;51.100;13.998;2023-09-19T02:39:21;10.32;;;3.78;;
14076;SDS011;7114;51.100;13.998;2023-09-19T02:41:48;10.77;;;3.90;;
14076;SDS011;7114;51.100;13.998;2023-09-19T02:44:15;9.35;;;3.85;;
14076;SDS011;7114;51.100;13.998;2023-09-19T02:46:41;9.90;;;4.38;;
14076;SDS011;7114;51.100;13.998;2023-09-19T02:49:08;8.80;;;3.65;;
14076;SDS011;7114;51.100;13.998;2023-09-19T02:51:34;10.45;;;4.05;;
14076;SDS011;7114;51.100;13.998;2023-09-19T02:54:02;9.63;;;3.70;;
14076;SDS011;7114;51.100;13.998;2023-09-19T02:56:28;9.93;;;3.88;;
14076;SDS011;7114;51.100;13.998;2023-09-19T02:58:55;10.93;;;3.92;;
14076;SDS011;7114;51.100;13.998;2023-09-19T03:01:22;9.27;;;3.72;;
14076;SDS011;7114;51.100;13.998;2023-09-19T03:03:49;9.55;;;4.07;;
14076;SDS011;7114;51.100;13.998;2023-09-19T03:06:15;11.67;;;3.53;;
14076;SDS011;7114;51.100;13.998;2023-09-19T03:08:45;9.15;;;3.95;;
14076;SDS011;7114;51.100;13.998;2023-09-19T03:11:15;9.40;;;3.63;;
14076;SDS011;7114;51.100;13.998;2023-09-19T03:13:43;9.05;;;3.78;;
14076;SDS011;7114;51.100;13.998;2023-09-19T03:16:11;11.38;;;3.97;;
14076;SDS011;7114;51.100;13.998;2023-09-19T03:18:39;7.90;;;3.40;;
14076;SDS011;7114;51.100;13.998;2023-09-19T03:21:06;7.07;;;3.13;;
14076;SDS011;7114;51.100;13.998;2023-09-19T03:23:32;8.30;;;3.08;;
14076;SDS011;7114;51.100;13.998;2023-09-19T03:25:59;9.40;;;3.45;;
14076;SDS011;7114;51.100;13.998;2023-09-19T03:28:27;7.15;;;2.50;;
14076;SDS011;7114;51.100;13.998;2023-09-19T03:30:58;7.57;;;2.70;;
14076;SDS011;7114;51.100;13.998;2023-09-19T03:33:25;6.63;;;2.55;;
14076;SDS011;7114;51.100;13.998;2023-09-19T03:35:52;6.20;;;1.98;;
14076;SDS011;7114;51.100;13.998;2023-09-19T03:38:19;6.03;;;2.08;;
14076;SDS011;7114;51.100;13.998;2023-09-19T03:40:46;6.10;;;1.90;;
14076;SDS011;7114;51.100;13.998;2023-09-19T03:43:13;7.27;;;2.20;;
14076;SDS011;7114;51.100;13.998;2023-09-19T03:45:41;6.57;;;2.05;;
14076;SDS011;7114;51.100;13.998;2023-09-19T03:48:08;7.57;;;2.00;;
14076;SDS011;7114;51.100;13.998;2023-09-19T03:50:34;6.43;;;2.00;;
14076;SDS011;7114;51.100;13.998;2023-09-19T03:53:00;6.10;;;1.70;;
14076;SDS011;7114;51.100;13.998;2023-09-19T03:55:28;6.13;;;1.80;;
14076;SDS011;7114;51.100;13.998;2023-09-19T03:57:55;6.20;;;2.15;;
14076;SDS011;7114;51.100;13.998;2023-09-19T04:00:21;6.60;;;1.70;;
14076;SDS011;7114;51.100;13.998;2023-09-19T04:02:51;5.60;;;1.45;;
14076;SDS011;7114;51.100;13.998;2023-09-19T04:05:17;7.07;;;1.73;;
14076;SDS011;7114;51.100;13.998;2023-09-19T04:07:44;5.43;;;1.43;;
14076;SDS011;7114;51.100;13.998;2023-09-19T04:10:10;7.05;;;1.40;;
14076;SDS011;7114;51.100;13.998;2023-09-19T04:12:37;5.80;;;1.75;;
14076;SDS011;7114;51.100;13.998;2023-09-19T04:15:04;5.53;;;1.50;;
14076;SDS011;7114;51.100;13.998;2023-09-19T04:17:31;6.57;;;1.27;;
14076;SDS011;7114;51.100;13.998;2023-09-19T04:19:59;5.53;;;1.17;;
14076;SDS011;7114;51.100;13.998;2023-09-19T04:22:26;5.43;;;1.20;;
14076;SDS011;7114;51.100;13.998;2023-09-19T04:24:52;4.97;;;1.30;;
14076;SDS011;7114;51.100;13.998;2023-09-19T04:27:19;5.32;;;1.30;;
14076;SDS011;7114;51.100;13.998;2023-09-19T04:29:45;6.45;;;1.35;;
14076;SDS011;7114;51.100;13.998;2023-09-19T04:32:11;5.77;;;1.20;;
14076;SDS011;7114;51.100;13.998;2023-09-19T04:34:38;4.78;;;1.23;;
14076;SDS011;7114;51.100;13.998;2023-09-19T04:37:05;5.60;;;1.30;;
14076;SDS011;7114;51.100;13.998;2023-09-19T04:39:32;5.85;;;1.20;;
14076;SDS011;7114;51.100;13.998;2023-09-19T04:41:59;6.35;;;1.30;;
14076;SDS011;7114;51.100;13.998;2023-09-19T04:44:25;5.40;;;1.30;;
14076;SDS011;7114;51.100;13.998;2023-09-19T04:46:51;4.63;;;1.08;;
14076;SDS011;7114;51.100;13.998;2023-09-19T04:49:18;5.00;;;1.20;;
14076;SDS011;7114;51.100;13.998;2023-09-19T04:51:44;6.57;;;1.40;;
14076;SDS011;7114;51.100;13.998;2023-09-19T04:54:13;5.78;;;1.15;;
14076;SDS011;7114;51.100;13.998;2023-09-19T04:56:40;4.90;;;1.17;;
14076;SDS011;7114;51.100;13.998;2023-09-19T04:59:07;5.53;;;0.98;;
14076;SDS011;7114;51.100;13.998;2023-09-19T05:01:35;5.85;;;1.33;;
14076;SDS011;7114;51.100;13.998;2023-09-19T05:04:02;5.25;;;1.10;;
14076;SDS011;7114;51.100;13.998;2023-09-19T05:06:29;5.13;;;1.00;;
14076;SDS011;7114;51.100;13.998;2023-09-19T05:08:56;5.70;;;1.10;;
14076;SDS011;7114;51.100;13.998;2023-09-19T05:11:24;4.80;;;0.85;;
14076;SDS011;7114;51.100;13.998;2023-09-19T05:13:50;5.30;;;1.10;;
14076;SDS011;7114;51.100;13.998;2023-09-19T05:16:18;5.50;;;0.93;;
14076;SDS011;7114;51.100;13.998;2023-09-19T05:18:44;6.00;;;1.20;;
14076;SDS011;7114;51.100;13.998;2023-09-19T05:21:10;5.43;;;1.20;;
14076;SDS011;7114;51.100;13.998;2023-09-19T05:23:37;5.00;;;1.05;;
14076;SDS011;7114;51.100;13.998;2023-09-19T05:26:03;5.20;;;1.35;;
14076;SDS011;7114;51.100;13.998;2023-09-19T05:28:31;6.00;;;1.00;;
14076;SDS011;7114;51.100;13.998;2023-09-19T05:30:59;6.45;;;1.00;;
14076;SDS011;7114;51.100;13.998;2023-09-19T05:33:26;5.13;;;1.00;;
14076;SDS011;7114;51.100;13.998;2023-09-19T05:35:52;4.85;;;1.00;;
14076;SDS011;7114;51.100;13.998;2023-09-19T05:38:19;6.38;;;1.20;;
14076;SDS011;7114;51.100;13.998;2023-09-19T05:40:45;4.70;;;1.00;;
14076;SDS011;7114;51.100;13.998;2023-09-19T05:43:12;4.68;;;1.00;;
14076;SDS011;7114;51.100;13.998;2023-09-19T05:45:40;5.97;;;0.87;;
14076;SDS011;7114;51.100;13.998;2023-09-19T05:48:07;5.50;;;0.85;;
14076;SDS011;7114;51.100;13.998;2023-09-19T05:50:35;4.70;;;1.00;;
14076;SDS011;7114;51.100;13.998;2023-09-19T05:53:01;4.63;;;0.95;;
14076;SDS011;7114;51.100;13.998;2023-09-19T05:55:29;4.75;;;1.10;;
14076;SDS011;7114;51.100;13.998;2023-09-19T05:57:55;5.27;;;1.13;;
14076;SDS011;7114;51.100;13.998;2023-09-19T06:00:23;5.10;;;1.00;;
14076;SDS011;7114;51.100;13.998;2023-09-19T06:02:52;5.43;;;1.05;;
14076;SDS011;7114;51.100;13.998;2023-09-19T06:05:19;4.70;;;0.93;;
14076;SDS011;7114;51.100;13.998;2023-09-19T06:07:47;5.43;;;1.10;;
14076;SDS011;7114;51.100;13.998;2023-09-19T06:10:13;4.43;;;1.03;;
14076;SDS011;7114;51.100;13.998;2023-09-19T06:12:40;4.63;;;0.95;;
14076;SDS011;7114;51.100;13.998;2023-09-19T06:15:10;6.05;;;1.00;;
14076;SDS011;7114;51.100;13.998;2023-09-19T06:17:40;4.60;;;0.80;;
14076;SDS011;7114;51.100;13.998;2023-09-19T06:20:07;4.82;;;0.80;;
14076;SDS011;7114;51.100;13.998;2023-09-19T06:22:37;6.23;;;0.80;;
14076;SDS011;7114;51.100;13.998;2023-09-19T06:25:04;4.72;;;0.80;;
14076;SDS011;7114;51.100;13.998;2023-09-19T06:27:31;4.60;;;0.93;;
14076;SDS011;7114;51.100;13.998;2023-09-19T06:29:57;5.65;;;0.98;;
14076;SDS011;7114;51.100;13.998;2023-09-19T06:32:26;5.63;;;1.17;;
14076;SDS011;7114;51.100;13.998;2023-09-19T06:34:53;5.33;;;0.90;;
14076;SDS011;7114;51.100;13.998;2023-09-19T06:37:22;4.40;;;0.85;;
14076;SDS011;7114;51.100;13.998;2023-09-19T06:39:49;4.93;;;0.90;;
14076;SDS011;7114;51.100;13.998;2023-09-19T06:42:15;5.03;;;1.00;;
14076;SDS011;7114;51.100;13.998;2023-09-19T06:44:42;4.88;;;1.08;;
14076;SDS011;7114;51.100;13.998;2023-09-19T06:47:08;5.87;;;0.87;;
14076;SDS011;7114;51.100;13.998;2023-09-19T06:49:35;4.40;;;0.90;;
14076;SDS011;7114;51.100;13.998;2023-09-19T06:52:01;4.85;;;0.90;;
14076;SDS011;7114;51.100;13.998;2023-09-19T06:54:29;4.78;;;0.90;;
14076;SDS011;7114;51.100;13.998;2023-09-19T06:56:56;4.90;;;1.10;;
14076;SDS011;7114;51.100;13.998;2023-09-19T06:59:23;5.50;;;0.90;;
14076;SDS011;7114;51.100;13.998;2023-09-19T07:01:49;4.38;;;0.90;;
14076;SDS011;7114;51.100;13.998;2023-09-19T07:04:15;5.63;;;0.90;;
14076;SDS011;7114;51.100;13.998;2023-09-19T07:06:44;5.22;;;0.88;;
14076;SDS011;7114;51.100;13.998;2023-09-19T07:09:11;5.20;;;0.82;;
14076;SDS011;7114;51.100;13.998;2023-09-19T07:11:38;4.27;;;0.80;;
14076;SDS011;7114;51.100;13.998;2023-09-19T07:14:05;4.65;;;0.60;;
14076;SDS011;7114;51.100;13.998;2023-09-19T07:16:31;5.20;;;0.98;;
14076;SDS011;7114;51.100;13.998;2023-09-19T07:18:58;4.28;;;0.60;;
14076;SDS011;7114;51.100;13.998;2023-09-19T07:21:24;6.70;;;1.23;;
14076;SDS011;7114;51.100;13.998;2023-09-19T07:23:50;4.03;;;0.80;;
14076;SDS011;7114;51.100;13.998;2023-09-19T07:26:17;4.57;;;0.80;;
14076;SDS011;7114;51.100;13.998;2023-09-19T07:28:44;4.43;;;0.82;;
14076;SDS011;7114;51.100;13.998;2023-09-19T07:31:11;5.07;;;0.82;;
14076;SDS011;7114;51.100;13.998;2023-09-19T07:33:39;3.80;;;0.65;;
14076;SDS011;7114;51.100;13.998;2023-09-19T07:36:06;3.73;;;0.60;;
14076;SDS011;7114;51.100;13.998;2023-09-19T07:38:35;4.22;;;0.68;;
14076;SDS011;7114;51.100;13.998;2023-09-19T07:41:02;4.75;;;0.80;;
14076;SDS011;7114;51.100;13.998;2023-09-19T07:43:30;5.00;;;0.80;;
14076;SDS011;7114;51.100;13.998;2023-09-19T07:45:58;4.32;;;0.98;;
14076;SDS011;7114;51.100;13.998;2023-09-19T07:48:29;4.70;;;0.97;;
14076;SDS011;7114;51.100;13.998;2023-09-19T07:50:55;3.50;;;0.50;;
14076;SDS011;7114;51.100;13.998;2023-09-19T07:53:22;4.18;;;0.90;;
14076;SDS011;7114;51.100;13.998;2023-09-19T07:55:48;4.78;;;0.70;;
14076;SDS011;7114;51.100;13.998;2023-09-19T07:58:14;5.78;;;0.90;;
14076;SDS011;7114;51.100;13.998;2023-09-19T08:00:41;3.73;;;0.70;;
14076;SDS011;7114;51.100;13.998;2023-09-19T08:03:09;4.40;;;0.75;;
14076;SDS011;7114;51.100;13.998;2023-09-19T08:05:39;4.32;;;0.73;;
14076;SDS011;7114;51.100;13.998;2023-09-19T08:08:08;4.03;;;0.80;;
14076;SDS011;7114;51.100;13.998;2023-09-19T08:10:34;4.30;;;0.70;;
14076;SDS011;7114;51.100;13.998;2023-09-19T08:13:04;3.87;;;0.53;;
14076;SDS011;7114;51.100;13.998;2023-09-19T08:15:36;5.25;;;0.60;;
14076;SDS011;7114;51.100;13.998;2023-09-19T08:18:02;5.10;;;0.70;;
14076;SDS011;7114;51.100;13.998;2023-09-19T08:20:31;3.45;;;0.70;;
14076;SDS011;7114;51.100;13.998;2023-09-19T08:23:00;5.30;;;0.80;;
14076;SDS011;7114;51.100;13.998;2023-09-19T08:25:27;4.03;;;0.90;;
14076;SDS011;7114;51.100;13.998;2023-09-19T08:27:54;4.13;;;0.70;;
14076;SDS011;7114;51.100;13.998;2023-09-19T08:30:23;4.70;;;0.70;;
14076;SDS011;7114;51.100;13.998;2023-09-19T08:32:56;4.60;;;0.80;;
14076;SDS011;7114;51.100;13.998;2023-09-19T08:35:23;3.70;;;0.77;;
14076;SDS011;7114;51.100;13.998;2023-09-19T08:37:51;4.27;;;0.80;;
14076;SDS011;7114;51.100;13.998;2023-09-19T08:40:18;4.65;;;0.90;;
14076;SDS011;7114;51.100;13.998;2023-09-19T08:42:48;4.15;;;0.70;;
14076;SDS011;7114;51.100;13.998;2023-09-19T08:45:15;3.97;;;0.90;;
14076;SDS011;7114;51.100;13.998;2023-09-19T08:47:44;4.18;;;0.80;;
14076;SDS011;7114;51.100;13.998;2023-09-19T08:50:14;5.23;;;0.80;;
14076;SDS011;7114;51.100;13.998;2023-09-19T08:52:45;4.20;;;0.90;;
14076;SDS011;7114;51.100;13.998;2023-09-19T08:55:14;4.38;;;0.90;;
14076;SDS011;7114;51.100;13.998;2023-09-19T08:57:47;3.97;;;0.80;;
14076;SDS011;7114;51.100;13.998;2023-09-19T09:00:16;4.65;;;1.00;;
14076;SDS011;7114;51.100;13.998;2023-09-19T09:02:45;4.67;;;0.90;;
14076;SDS011;7114;51.100;13.998;2023-09-19T09:05:12;4.45;;;1.00;;
14076;SDS011;7114;51.100;13.998;2023-09-19T09:07:41;4.55;;;0.88;;
14076;SDS011;7114;51.100;13.998;2023-09-19T09:10:08;4.80;;;0.90;;
14076;SDS011;7114;51.100;13.998;2023-09-19T09:12:37;4.28;;;0.95;;
14076;SDS011;7114;51.100;13.998;2023-09-19T09:15:05;5.10;;;0.83;;
14076;SDS011;7114;51.100;13.998;2023-09-19T09:17:33;4.97;;;0.80;;
14076;SDS011;7114;51.100;13.998;2023-09-19T09:20:00;4.40;;;0.90;;
14076;SDS011;7114;51.100;13.998;2023-09-19T09:22:26;5.38;;;0.95;;
14076;SDS011;7114;51.100;13.998;2023-09-19T09:24:53;6.47;;;1.15;;
14076;SDS011;7114;51.100;13.998;2023-09-19T09:27:20;3.87;;;0.80;;
14076;SDS011;7114;51.100;13.998;2023-09-19T09:29:50;4.57;;;1.00;;
14076;SDS011;7114;51.100;13.998;2023-09-19T09:32:20;4.95;;;0.90;;
14076;SDS011;7114;51.100;13.998;2023-09-19T09:34:48;4.20;;;1.00;;
14076;SDS011;7114;51.100;13.998;2023-09-19T09:37:15;4.63;;;1.00;;
14076;SDS011;7114;51.100;13.998;2023-09-19T09:39:54;3.43;;;0.70;;
14076;SDS011;7114;51.100;13.998;2023-09-19T09:42:31;4.15;;;1.00;;
14076;SDS011;7114;51.100;13.998;2023-09-19T09:45:14;5.32;;;1.00;;
14076;SDS011;7114;51.100;13.998;2023-09-19T09:47:42;3.65;;;0.70;;
14076;SDS011;7114;51.100;13.998;2023-09-19T09:50:22;4.18;;;0.80;;
14076;SDS011;7114;51.100;13.998;2023-09-19T09:52:54;4.70;;;0.97;;
14076;SDS011;7114;51.100;13.998;2023-09-19T09:55:25;4.68;;;0.90;;
14076;SDS011;7114;51.100;13.998;2023-09-19T09:57:58;4.65;;;0.90;;
14076;SDS011;7114;51.100;13.998;2023-09-19T10:00:53;4.38;;;1.00;;
14076;SDS011;7114;51.100;13.998;2023-09-19T10:03:24;5.45;;;1.10;;
14076;SDS011;7114;51.100;13.998;2023-09-19T10:05:57;4.90;;;0.90;;
14076;SDS011;7114;51.100;13.998;2023-09-19T10:08:34;4.22;;;0.90;;
14076;SDS011;7114;51.100;13.998;2023-09-19T10:11:01;5.25;;;0.90;;
14076;SDS011;7114;51.100;13.998;2023-09-19T10:13:41;4.13;;;0.98;;
14076;SDS011;7114;51.100;13.998;2023-09-19T10:16:10;5.15;;;1.08;;
14076;SDS011;7114;51.100;13.998;2023-09-19T10:18:40;4.47;;;1.20;;
14076;SDS011;7114;51.100;13.998;2023-09-19T10:21:08;5.25;;;1.00;;
14076;SDS011;7114;51.100;13.998;2023-09-19T10:23:35;5.15;;;1.45;;
14076;SDS011;7114;51.100;13.998;2023-09-19T10:26:02;4.85;;;1.15;;
14076;SDS011;7114;51.100;13.998;2023-09-19T10:28:30;4.40;;;1.10;;
14076;SDS011;7114;51.100;13.998;2023-09-19T10:30:56;5.60;;;1.10;;
14076;SDS011;7114;51.100;13.998;2023-09-19T10:33:25;4.85;;;1.40;;
14076;SDS011;7114;51.100;13.998;2023-09-19T10:35:51;5.30;;;1.15;;
14076;SDS011;7114;51.100;13.998;2023-09-19T10:38:22;4.20;;;1.00;;
14076;SDS011;7114;51.100;13.998;2023-09-19T10:40:50;4.20;;;1.17;;
14076;SDS011;7114;51.100;13.998;2023-09-19T10:43:17;4.87;;;1.40;;
14076;SDS011;7114;51.100;13.998;2023-09-19T10:45:44;5.13;;;1.15;;
14076;SDS011;7114;51.100;13.998;2023-09-19T10:48:12;5.38;;;1.10;;
14076;SDS011;7114;51.100;13.998;2023-09-19T10:50:43;4.40;;;1.00;;
14076;SDS011;7114;51.100;13.998;2023-09-19T10:53:12;3.67;;;0.88;;
14076;SDS011;7114;51.100;13.998;2023-09-19T10:55:40;4.97;;;1.20;;
14076;SDS011;7114;51.100;13.998;2023-09-19T10:58:06;4.63;;;1.00;;
14076;SDS011;7114;51.100;13.998;2023-09-19T11:00:52;5.05;;;1.20;;
14076;SDS011;7114;51.100;13.998;2023-09-19T11:03:20;5.35;;;1.20;;
14076;SDS011;7114;51.100;13.998;2023-09-19T11:06:03;4.50;;;1.40;;
14076;SDS011;7114;51.100;13.998;2023-09-19T11:08:51;4.40;;;1.20;;
14076;SDS011;7114;51.100;13.998;2023-09-19T11:14:14;4.93;;;1.20;;
14076;SDS011;7114;51.100;13.998;2023-09-19T11:25:51;4.47;;;1.48;;
14076;SDS011;7114;51.100;13.998;2023-09-19T11:28:31;4.85;;;1.50;;
14076;SDS011;7114;51.100;13.998;2023-09-19T11:34:39;5.25;;;1.60;;
14076;SDS011;7114;51.100;13.998;2023-09-19T11:40:45;5.32;;;1.83;;
14076;SDS011;7114;51.100;13.998;2023-09-19T11:43:30;4.38;;;1.13;;
14076;SDS011;7114;51.100;13.998;2023-09-19T11:46:05;5.00;;;1.40;;
14076;SDS011;7114;51.100;13.998;2023-09-19T11:48:40;4.97;;;1.60;;
14076;SDS011;7114;51.100;13.998;2023-09-19T11:51:14;4.43;;;1.37;;
14076;SDS011;7114;51.100;13.998;2023-09-19T11:53:47;4.85;;;1.13;;
14076;SDS011;7114;51.100;13.998;2023-09-19T11:56:16;6.03;;;1.30;;
14076;SDS011;7114;51.100;13.998;2023-09-19T11:58:45;5.25;;;1.20;;
14076;SDS011;7114;51.100;13.998;2023-09-19T12:01:14;4.75;;;1.15;;
14076;SDS011;7114;51.100;13.998;2023-09-19T12:03:45;3.93;;;1.10;;
14076;SDS011;7114;51.100;13.998;2023-09-19T12:06:14;4.20;;;1.30;;
14076;SDS011;7114;51.100;13.998;2023-09-19T12:08:41;5.15;;;1.30;;
14076;SDS011;7114;51.100;13.998;2023-09-19T12:11:11;5.85;;;1.35;;
14076;SDS011;7114;51.100;13.998;2023-09-19T12:13:42;6.47;;;1.35;;
14076;SDS011;7114;51.100;13.998;2023-09-19T12:16:13;4.70;;;1.30;;
14076;SDS011;7114;51.100;13.998;2023-09-19T12:18:41;4.60;;;1.40;;
14076;SDS011;7114;51.100;13.998;2023-09-19T12:21:20;7.70;;;1.45;;
14076;SDS011;7114;51.100;13.998;2023-09-19T12:23:56;4.53;;;1.45;;
14076;SDS011;7114;51.100;13.998;2023-09-19T12:26:23;4.65;;;1.25;;
14076;SDS011;7114;51.100;13.998;2023-09-19T12:28:51;5.17;;;1.67;;
14076;SDS011;7114;51.100;13.998;2023-09-19T12:31:19;5.80;;;1.50;;
14076;SDS011;7114;51.100;13.998;2023-09-19T12:33:46;5.18;;;1.58;;
14076;SDS011;7114;51.100;13.998;2023-09-19T12:36:19;5.22;;;1.38;;
14076;SDS011;7114;51.100;13.998;2023-09-19T12:38:50;5.03;;;1.30;;
14076;SDS011;7114;51.100;13.998;2023-09-19T12:41:18;6.37;;;1.20;;
14076;SDS011;7114;51.100;13.998;2023-09-19T12:43:45;4.63;;;1.30;;
14076;SDS011;7114;51.100;13.998;2023-09-19T12:46:13;5.20;;;1.70;;
14076;SDS011;7114;51.100;13.998;2023-09-19T12:48:44;5.18;;;1.30;;
14076;SDS011;7114;51.100;13.998;2023-09-19T12:51:13;5.55;;;1.48;;
14076;SDS011;7114;51.100;13.998;2023-09-19T12:53:41;5.90;;;1.37;;
14076;SDS011;7114;51.100;13.998;2023-09-19T12:56:09;4.97;;;1.40;;
14076;SDS011;7114;51.100;13.998;2023-09-19T12:58:48;6.13;;;1.50;;
14076;SDS011;7114;51.100;13.998;2023-09-19T13:01:16;5.13;;;1.35;;
14076;SDS011;7114;51.100;13.998;2023-09-19T13:03:42;4.80;;;1.20;;
14076;SDS011;7114;51.100;13.998;2023-09-19T13:06:09;4.60;;;1.10;;
14076;SDS011;7114;51.100;13.998;2023-09-19T13:08:37;5.35;;;1.45;;
14076;SDS011;7114;51.100;13.998;2023-09-19T13:11:04;5.38;;;1.10;;
14076;SDS011;7114;51.100;13.998;2023-09-19T13:13:36;5.35;;;1.50;;
14076;SDS011;7114;51.100;13.998;2023-09-19T13:16:03;6.00;;;1.40;;
14076;SDS011;7114;51.100;13.998;2023-09-19T13:18:42;4.70;;;1.43;;
14076;SDS011;7114;51.100;13.998;2023-09-19T13:21:10;5.30;;;1.33;;
14076;SDS011;7114;51.100;13.998;2023-09-19T13:23:40;4.72;;;1.20;;
14076;SDS011;7114;51.100;13.998;2023-09-19T13:26:08;4.63;;;1.00;;
14076;SDS011;7114;51.100;13.998;2023-09-19T13:28:35;4.75;;;1.20;;
14076;SDS011;7114;51.100;13.998;2023-09-19T13:31:03;4.83;;;1.00;;
14076;SDS011;7114;51.100;13.998;2023-09-19T13:33:29;5.82;;;1.20;;
14076;SDS011;7114;51.100;13.998;2023-09-19T13:35:57;4.43;;;1.13;;
14076;SDS011;7114;51.100;13.998;2023-09-19T13:38:24;5.50;;;1.20;;
14076;SDS011;7114;51.100;13.998;2023-09-19T13:40:50;4.28;;;1.10;;
14076;SDS011;7114;51.100;13.998;2023-09-19T13:43:17;4.67;;;1.10;;
14076;SDS011;7114;51.100;13.998;2023-09-19T13:45:44;5.75;;;1.10;;
14076;SDS011;7114;51.100;13.998;2023-09-19T13:48:10;4.93;;;0.93;;
14076;SDS011;7114;51.100;13.998;2023-09-19T13:50:37;4.50;;;1.00;;
14076;SDS011;7114;51.100;13.998;2023-09-19T13:53:08;4.80;;;1.23;;
14076;SDS011;7114;51.100;13.998;2023-09-19T13:55:35;4.47;;;1.03;;
14076;SDS011;7114;51.100;13.998;2023-09-19T13:58:02;4.32;;;0.98;;
14076;SDS011;7114;51.100;13.998;2023-09-19T14:00:31;4.65;;;1.42;;
14076;SDS011;7114;51.100;13.998;2023-09-19T14:02:59;5.07;;;1.20;;
14076;SDS011;7114;51.100;13.998;2023-09-19T14:05:26;4.90;;;1.13;;
14076;SDS011;7114;51.100;13.998;2023-09-19T14:07:53;4.20;;;1.13;;
14076;SDS011;7114;51.100;13.998;2023-09-19T14:10:22;5.43;;;1.20;;
14076;SDS011;7114;51.100;13.998;2023-09-19T14:12:48;4.65;;;1.40;;
14076;SDS011;7114;51.100;13.998;2023-09-19T14:15:14;5.00;;;1.30;;
14076;SDS011;7114;51.100;13.998;2023-09-19T14:17:41;4.97;;;1.20;;
14076;SDS011;7114;51.100;13.998;2023-09-19T14:20:10;5.20;;;1.17;;
14076;SDS011;7114;51.100;13.998;2023-09-19T14:22:36;4.72;;;0.93;;
14076;SDS011;7114;51.100;13.998;2023-09-19T14:25:03;4.50;;;1.20;;
14076;SDS011;7114;51.100;13.998;2023-09-19T14:27:31;4.85;;;1.23;;
14076;SDS011;7114;51.100;13.998;2023-09-19T14:29:58;5.80;;;1.38;;
14076;SDS011;7114;51.100;13.998;2023-09-19T14:32:24;6.13;;;1.90;;
14076;SDS011;7114;51.100;13.998;2023-09-19T14:34:51;5.22;;;1.50;;
14076;SDS011;7114;51.100;13.998;2023-09-19T14:37:17;5.20;;;1.60;;
14076;SDS011;7114;51.100;13.998;2023-09-19T14:39:46;7.18;;;1.67;;
14076;SDS011;7114;51.100;13.998;2023-09-19T14:42:12;6.30;;;1.40;;
14076;SDS011;7114;51.100;13.998;2023-09-19T14:44:43;5.27;;;1.40;;
14076;SDS011;7114;51.100;13.998;2023-09-19T14:47:10;5.80;;;1.20;;
14076;SDS011;7114;51.100;13.998;2023-09-19T14:49:38;4.63;;;1.30;;
14076;SDS011;7114;51.100;13.998;2023-09-19T14:52:06;4.50;;;1.00;;
14076;SDS011;7114;51.100;13.998;2023-09-19T14:54:33;4.70;;;1.20;;
14076;SDS011;7114;51.100;13.998;2023-09-19T14:57:00;4.27;;;1.10;;
14076;SDS011;7114;51.100;13.998;2023-09-19T14:59:30;4.63;;;1.10;;
14076;SDS011;7114;51.100;13.998;2023-09-19T15:01:57;4.60;;;1.20;;
14076;SDS011;7114;51.100;13.998;2023-09-19T15:04:24;6.65;;;1.30;;
14076;SDS011;7114;51.100;13.998;2023-09-19T15:06:50;4.70;;;1.35;;
14076;SDS011;7114;51.100;13.998;2023-09-19T15:09:19;5.07;;;1.10;;
14076;SDS011;7114;51.100;13.998;2023-09-19T15:11:46;6.15;;;1.40;;